Time;durP1;ratioP1;P1;durP2;ratioP2;P2;SDS_P1;SDS_P2;PMS_P1;PMS_P2;Temp;Humidity;BMP_temperature;BMP_pressure;BME280_temperature;BME280_humidity;BME280_pressure;Samples;Min_cycle;Max_cycle;Signal;HPM_P1;HPM_P2
2023/05/29 00:00:23;;;;;;;12.23;3.33;;;;;;;13.37;61.94;102448.22;7388616;19;20018;-50
2023/05/29 00:02:50;;;;;;;16.20;3.55;;;;;;;13.37;61.57;102448.22;7390994;19;20039;-52
2023/05/29 00:05:18;;;;;;;14.93;3.30;;;;;;;13.26;62.34;102447.13;7390663;19;20122;-49
2023/05/29 00:07:45;;;;;;;16.70;3.30;;;;;;;13.26;62.22;102447.13;7389682;19;20017;-50
2023/05/29 00:10:13;;;;;;;15.00;3.00;;;;;;;13.30;61.93;102454.00;7389822;19;20022;-51
2023/05/29 00:12:40;;;;;;;12.60;3.63;;;;;;;13.31;62.12;102448.56;7390635;19;20018;-54
2023/05/29 00:15:09;;;;;;;14.80;4.05;;;;;;;13.08;62.58;102452.53;7388761;19;20011;-52
2023/05/29 00:17:37;;;;;;;14.15;3.35;;;;;;;13.04;62.78;102453.66;7389589;19;20018;-50
2023/05/29 00:20:11;;;;;;;15.73;3.53;;;;;;;13.04;62.58;102453.66;7389711;19;20021;-50
2023/05/29 00:22:40;;;;;;;16.08;3.88;;;;;;;12.99;62.89;102454.88;7390758;19;20090;-53
2023/05/29 00:25:10;;;;;;;13.02;3.28;;;;;;;13.00;62.81;102456.56;7390366;19;20011;-50
2023/05/29 00:27:37;;;;;;;14.43;3.53;;;;;;;13.05;62.53;102455.38;7390508;19;20047;-49
2023/05/29 00:30:05;;;;;;;14.18;3.47;;;;;;;12.93;62.92;102462.25;7389387;19;20022;-47
2023/05/29 00:32:33;;;;;;;13.68;3.10;;;;;;;12.95;62.97;102458.66;7389168;19;20014;-48
2023/05/29 00:35:00;;;;;;;12.35;2.75;;;;;;;12.93;62.74;102459.59;7388054;19;20023;-48
2023/05/29 00:37:28;;;;;;;11.43;3.08;;;;;;;12.80;63.05;102460.34;7390599;19;20011;-48
2023/05/29 00:39:55;;;;;;;16.13;3.33;;;;;;;12.81;63.00;102464.72;7387612;19;20366;-48
2023/05/29 00:42:23;;;;;;;17.88;3.38;;;;;;;12.69;63.44;102472.44;7388553;19;20032;-58
2023/05/29 00:44:50;;;;;;;15.18;3.45;;;;;;;12.72;63.43;102474.06;7389467;19;20043;-58
2023/05/29 00:47:17;;;;;;;13.27;3.17;;;;;;;12.87;62.90;102478.53;7389934;19;20011;-58
2023/05/29 00:49:45;;;;;;;16.30;3.35;;;;;;;12.95;62.72;102477.25;7389177;19;20523;-56
2023/05/29 00:52:13;;;;;;;16.35;4.03;;;;;;;12.74;63.29;102481.94;7389937;19;20018;-56
2023/05/29 00:54:45;;;;;;;15.30;3.22;;;;;;;12.79;62.93;102486.09;7387739;19;20039;-56
2023/05/29 00:57:14;;;;;;;15.33;3.80;;;;;;;12.72;63.35;102481.19;7393737;19;20026;-57
2023/05/29 00:59:42;;;;;;;15.30;3.85;;;;;;;12.78;63.10;102480.84;7396418;19;20025;-55
2023/05/29 01:02:09;;;;;;;13.77;3.75;;;;;;;12.79;63.24;102475.47;7392607;19;20018;-56
2023/05/29 01:04:38;;;;;;;16.65;3.80;;;;;;;12.84;62.88;102486.69;7396670;19;20040;-57
2023/05/29 01:07:06;;;;;;;18.33;4.10;;;;;;;12.70;63.08;102486.56;7395178;19;20022;-58
2023/05/29 01:09:36;;;;;;;16.00;3.47;;;;;;;12.75;63.42;102491.66;7396083;19;20026;-57
2023/05/29 01:12:31;;;;;;;15.75;3.47;;;;;;;12.80;63.05;102482.47;7394240;19;20022;-60
2023/05/29 01:15:24;;;;;;;17.52;4.13;;;;;;;12.72;63.51;102483.84;7394203;19;20018;-59
2023/05/29 01:18:18;;;;;;;16.48;3.70;;;;;;;12.68;63.30;102483.16;7397362;19;20429;-61
2023/05/29 01:20:56;;;;;;;13.35;3.15;;;;;;;12.64;63.53;102485.13;7392647;19;20018;-60
2023/05/29 01:23:25;;;;;;;17.25;3.92;;;;;;;12.51;63.91;102491.19;7394894;19;20503;-53
2023/05/29 01:26:31;;;;;;;13.13;3.50;;;;;;;12.45;64.24;102492.38;7395959;19;20043;-52
2023/05/29 01:29:02;;;;;;;16.55;3.40;;;;;;;12.34;64.69;102494.75;7396024;19;20026;-51
2023/05/29 01:31:30;;;;;;;14.60;3.53;;;;;;;12.44;64.20;102499.50;7392709;19;20039;-58
2023/05/29 01:34:02;;;;;;;15.02;3.20;;;;;;;12.55;63.82;102495.38;7394595;19;20014;-58
2023/05/29 01:36:30;;;;;;;14.80;3.47;;;;;;;12.51;64.06;102492.03;7395255;19;20074;-58
2023/05/29 01:38:58;;;;;;;17.25;3.65;;;;;;;12.46;64.26;102496.75;7394866;19;20092;-58
2023/05/29 01:41:26;;;;;;;13.40;3.08;;;;;;;12.45;64.34;102487.06;7393610;19;20014;-58
2023/05/29 01:43:57;;;;;;;14.15;3.20;;;;;;;12.43;64.30;102484.47;7395948;19;20021;-58
2023/05/29 01:46:25;;;;;;;15.80;3.42;;;;;;;12.25;64.97;102485.47;7395341;19;20074;-53
2023/05/29 01:48:54;;;;;;;16.70;3.97;;;;;;;12.36;64.69;102491.09;7395565;19;20022;-55
2023/05/29 01:51:22;;;;;;;16.10;3.63;;;;;;;12.40;64.29;102486.44;7393721;19;20051;-55
2023/05/29 01:53:50;;;;;;;15.52;3.17;;;;;;;12.39;64.41;102500.66;7394192;19;20026;-55
2023/05/29 01:56:17;;;;;;;17.45;3.85;;;;;;;12.28;64.91;102503.03;7393614;19;20011;-56
2023/05/29 01:58:45;;;;;;;15.10;2.97;;;;;;;12.33;64.53;102504.53;7394995;19;20035;-57
2023/05/29 02:01:13;;;;;;;12.63;3.03;;;;;;;12.25;65.06;102512.03;7392645;19;20078;-56
2023/05/29 02:03:40;;;;;;;15.23;3.53;;;;;;;12.29;64.77;102499.47;7395399;19;20023;-57
2023/05/29 02:06:07;;;;;;;20.55;4.20;;;;;;;12.31;64.50;102509.03;7392237;19;20550;-56
2023/05/29 02:08:34;;;;;;;18.98;3.53;;;;;;;12.29;64.62;102502.13;7391916;19;20095;-56
2023/05/29 02:11:02;;;;;;;14.82;3.13;;;;;;;12.19;64.76;102501.72;7393628;19;20022;-57
2023/05/29 02:13:29;;;;;;;16.60;3.30;;;;;;;12.18;64.88;102502.69;7392442;19;20045;-57
2023/05/29 02:15:56;;;;;;;15.43;3.65;;;;;;;12.20;64.76;102503.44;7392528;19;20021;-57
2023/05/29 02:18:23;;;;;;;14.23;3.65;;;;;;;12.22;64.72;102506.88;7394068;19;20015;-56
2023/05/29 02:20:51;;;;;;;15.57;3.63;;;;;;;12.24;64.43;102510.31;7391814;19;20047;-57
2023/05/29 02:23:19;;;;;;;14.10;3.13;;;;;;;12.27;64.32;102518.13;7392465;19;20085;-57
2023/05/29 02:25:46;;;;;;;15.15;3.25;;;;;;;12.20;64.31;102516.72;7393968;19;20505;-57
2023/05/29 02:28:13;;;;;;;15.00;3.67;;;;;;;12.20;64.37;102522.88;7394655;19;20082;-56
2023/05/29 02:30:41;;;;;;;16.58;3.20;;;;;;;12.25;64.18;102514.69;7392164;19;20077;-57
2023/05/29 02:33:08;;;;;;;16.13;3.17;;;;;;;12.15;64.55;102519.63;7393935;19;20019;-56
2023/05/29 02:35:35;;;;;;;16.08;3.60;;;;;;;12.13;64.16;102518.84;7393197;19;20027;-57
2023/05/29 02:38:03;;;;;;;17.88;3.75;;;;;;;12.05;64.48;102522.81;7394222;19;20421;-55
2023/05/29 02:40:30;;;;;;;15.23;3.50;;;;;;;12.00;64.48;102517.75;7390656;19;20018;-53
2023/05/29 02:42:57;;;;;;;15.68;3.10;;;;;;;11.98;64.54;102524.97;7393506;19;20022;-56
2023/05/29 02:45:24;;;;;;;14.05;3.17;;;;;;;12.02;64.08;102523.88;7393080;19;20018;-54
2023/05/29 02:47:51;;;;;;;13.98;3.10;;;;;;;12.00;63.99;102519.56;7394071;19;20035;-60
2023/05/29 02:50:19;;;;;;;12.82;3.15;;;;;;;11.97;63.94;102522.38;7389436;19;20022;-51
2023/05/29 02:52:46;;;;;;;14.00;3.28;;;;;;;12.02;63.47;102523.88;7396642;19;20015;-52
2023/05/29 02:55:13;;;;;;;14.13;3.20;;;;;;;12.06;63.37;102524.56;7392603;19;20015;-52
2023/05/29 02:57:41;;;;;;;14.55;3.67;;;;;;;12.05;63.45;102521.03;7394121;19;20098;-52
2023/05/29 03:00:09;;;;;;;13.43;3.13;;;;;;;12.06;63.31;102520.09;7390963;19;20082;-52
2023/05/29 03:02:36;;;;;;;16.52;3.13;;;;;;;11.93;63.27;102517.19;7393000;19;20022;-54
2023/05/29 03:05:04;;;;;;;13.80;3.22;;;;;;;11.87;63.35;102517.53;7392202;19;20086;-54
2023/05/29 03:07:31;;;;;;;15.13;3.00;;;;;;;11.67;64.34;102517.63;7393256;19;20018;-55
2023/05/29 03:09:58;;;;;;;14.25;3.22;;;;;;;11.81;63.78;102523.09;7391126;19;20019;-55
2023/05/29 03:12:27;;;;;;;14.93;3.28;;;;;;;11.83;63.55;102512.41;7389463;19;20039;-50
2023/05/29 03:14:56;;;;;;;13.57;3.25;;;;;;;11.82;63.49;102514.19;7390932;19;20033;-48
2023/05/29 03:17:23;;;;;;;17.08;3.47;;;;;;;11.85;63.10;102514.09;7392360;19;20018;-48
2023/05/29 03:19:50;;;;;;;15.02;3.63;;;;;;;11.88;62.94;102510.44;7391330;19;20018;-47
2023/05/29 03:22:18;;;;;;;15.18;3.65;;;;;;;11.85;63.08;102508.78;7389052;19;20314;-50
2023/05/29 03:24:45;;;;;;;13.98;3.40;;;;;;;11.84;63.11;102504.41;7391964;19;20363;-53
2023/05/29 03:27:12;;;;;;;17.67;3.13;;;;;;;11.84;62.93;102506.22;7391201;19;20019;-54
2023/05/29 03:29:39;;;;;;;13.32;3.40;;;;;;;11.85;62.93;102507.91;7391622;19;20022;-54
2023/05/29 03:32:07;;;;;;;15.23;3.42;;;;;;;11.82;62.84;102508.03;7391213;19;20022;-57
2023/05/29 03:34:34;;;;;;;17.65;3.53;;;;;;;11.84;62.77;102508.88;7390098;19;20014;-54
2023/05/29 03:37:02;;;;;;;13.73;3.70;;;;;;;11.77;63.04;102508.28;7392250;19;20434;-57
2023/05/29 03:39:29;;;;;;;16.02;3.45;;;;;;;11.76;62.93;102508.38;7391180;19;20015;-57
2023/05/29 03:41:56;;;;;;;13.38;2.90;;;;;;;11.87;62.93;102504.25;7391189;19;20018;-57
2023/05/29 03:44:23;;;;;;;14.00;3.72;;;;;;;11.83;62.62;102504.44;7391096;19;20516;-57
2023/05/29 03:46:51;;;;;;;17.23;3.00;;;;;;;11.87;62.27;102506.91;7391278;19;20092;-58
2023/05/29 03:49:18;;;;;;;11.77;2.92;;;;;;;11.74;62.76;102518.19;7391084;19;20018;-56
2023/05/29 03:51:45;;;;;;;13.50;3.00;;;;;;;11.87;62.63;102519.34;7388900;19;20372;-57
2023/05/29 03:54:13;;;;;;;13.73;3.03;;;;;;;11.93;62.12;102519.00;7390422;19;20093;-57
2023/05/29 03:56:40;;;;;;;16.50;3.50;;;;;;;11.91;62.33;102518.25;7390994;19;20494;-51
2023/05/29 03:59:07;;;;;;;15.50;3.47;;;;;;;11.86;62.42;102518.44;7390980;19;20029;-48
2023/05/29 04:01:34;;;;;;;15.25;3.47;;;;;;;11.77;62.53;102523.34;7390030;19;20023;-56
2023/05/29 04:04:02;;;;;;;13.77;2.88;;;;;;;11.72;62.83;102528.88;7390810;19;20022;-57
2023/05/29 04:06:29;;;;;;;10.98;2.65;;;;;;;11.54;63.75;102530.66;7390307;19;20018;-56
2023/05/29 04:08:56;;;;;;;11.10;2.53;;;;;;;11.72;63.11;102531.53;7390143;19;20029;-55
2023/05/29 04:11:23;;;;;;;16.08;3.70;;;;;;;11.63;63.50;102534.63;7388554;19;20378;-56
2023/05/29 04:13:52;;;;;;;14.48;3.45;;;;;;;11.66;63.25;102531.84;7388549;19;20043;-54
2023/05/29 04:16:19;;;;;;;14.85;3.70;;;;;;;11.66;63.29;102538.00;7390226;19;20018;-55
2023/05/29 04:18:46;;;;;;;13.07;3.15;;;;;;;11.50;63.98;102544.16;7389913;19;20018;-56
2023/05/29 04:21:13;;;;;;;11.85;3.05;;;;;;;11.65;63.70;102546.06;7388825;19;20477;-55
2023/05/29 04:23:41;;;;;;;12.10;2.80;;;;;;;11.92;62.70;102551.81;7391010;19;20042;-55
2023/05/29 04:26:08;;;;;;;16.45;3.60;;;;;;;12.00;62.25;102557.59;7389713;19;20483;-55
2023/05/29 04:28:37;;;;;;;13.32;3.58;;;;;;;12.05;62.27;102550.22;7389458;19;20019;-54
2023/05/29 04:31:05;;;;;;;17.08;3.28;;;;;;;11.99;62.22;102553.22;7389061;19;20023;-52
2023/05/29 04:33:32;;;;;;;15.98;3.22;;;;;;;11.95;62.38;102549.84;7396577;19;20088;-52
2023/05/29 04:36:03;;;;;;;17.13;3.70;;;;;;;12.10;61.61;102558.00;7394355;19;20022;-49
2023/05/29 04:38:31;;;;;;;17.13;3.67;;;;;;;11.92;62.19;102552.66;7393508;19;20022;-49
2023/05/29 04:40:58;;;;;;;14.57;3.78;;;;;;;11.95;62.13;102549.84;7397173;19;20022;-53
2023/05/29 04:43:26;;;;;;;16.85;3.38;;;;;;;12.04;61.78;102555.63;7397704;19;20089;-53
2023/05/29 04:45:53;;;;;;;15.50;3.03;;;;;;;12.13;61.65;102557.81;7397620;19;20039;-52
2023/05/29 04:48:21;;;;;;;15.20;3.60;;;;;;;12.29;61.03;102558.75;7395579;19;20018;-53
2023/05/29 04:50:52;;;;;;;14.57;3.25;;;;;;;12.28;60.94;102561.47;7396478;19;20515;-49
2023/05/29 04:53:19;;;;;;;17.05;3.95;;;;;;;12.24;60.95;102557.25;7397340;19;20677;-54
2023/05/29 04:55:47;;;;;;;15.07;3.38;;;;;;;12.28;60.76;102562.31;7396715;19;20070;-53
2023/05/29 04:58:14;;;;;;;17.55;3.42;;;;;;;12.12;60.96;102569.38;7397945;19;20007;-54
2023/05/29 05:00:43;;;;;;;18.85;3.92;;;;;;;12.22;61.10;102575.94;7396661;19;20043;-54
2023/05/29 05:03:10;;;;;;;15.13;3.17;;;;;;;12.31;60.76;102583.44;7396495;19;20082;-54
2023/05/29 05:05:37;;;;;;;15.85;3.45;;;;;;;12.33;60.20;102588.69;7396591;19;20377;-54
2023/05/29 05:08:05;;;;;;;17.40;3.35;;;;;;;12.41;60.26;102586.47;7396574;19;20042;-53
2023/05/29 05:10:32;;;;;;;15.43;3.78;;;;;;;12.47;59.86;102582.63;7395483;19;20026;-54
2023/05/29 05:13:02;;;;;;;16.20;3.50;;;;;;;12.53;60.00;102585.84;7396370;19;20018;-54
2023/05/29 05:15:29;;;;;;;14.07;3.63;;;;;;;12.57;59.81;102584.72;7394175;19;20047;-53
2023/05/29 05:17:56;;;;;;;20.27;3.70;;;;;;;12.49;60.21;102589.59;7396680;19;20019;-52
2023/05/29 05:20:23;;;;;;;17.30;4.13;;;;;;;12.56;60.31;102579.50;7395136;19;20025;-53
2023/05/29 05:22:51;;;;;;;17.55;3.95;;;;;;;12.59;59.95;102576.66;7396906;19;20025;-52
2023/05/29 05:25:18;;;;;;;16.10;3.50;;;;;;;12.52;60.62;102577.97;7396093;19;20018;-54
2023/05/29 05:27:46;;;;;;;15.73;3.55;;;;;;;12.61;59.91;102582.78;7396410;19;20018;-53
2023/05/29 05:30:13;;;;;;;14.65;3.65;;;;;;;12.71;59.88;102580.50;7395026;19;20049;-55
2023/05/29 05:32:40;;;;;;;17.98;3.33;;;;;;;12.72;59.72;102567.13;7396063;19;20558;-54
2023/05/29 05:35:10;;;;;;;16.15;4.03;;;;;;;12.72;59.72;102568.91;7394209;19;20026;-53
2023/05/29 05:37:37;;;;;;;17.98;3.75;;;;;;;12.77;59.68;102569.53;7396306;19;20039;-53
2023/05/29 05:40:06;;;;;;;18.75;3.63;;;;;;;12.92;59.17;102560.72;7393411;19;20410;-53
2023/05/29 05:42:34;;;;;;;12.10;3.45;;;;;;;12.99;58.84;102566.56;7393372;19;20014;-55
2023/05/29 05:45:02;;;;;;;17.02;3.60;;;;;;;12.91;59.25;102561.66;7395272;19;20090;-54
2023/05/29 05:47:30;;;;;;;15.88;3.83;;;;;;;12.74;59.35;102570.53;7394029;19;20115;-54
2023/05/29 05:49:57;;;;;;;19.25;3.60;;;;;;;12.67;59.79;102580.66;7395052;19;20039;-49
2023/05/29 05:52:25;;;;;;;16.13;3.80;;;;;;;12.71;59.38;102575.19;7392865;19;20015;-52
2023/05/29 05:54:52;;;;;;;17.67;4.22;;;;;;;12.82;58.94;102575.44;7393660;19;20018;-55
2023/05/29 05:57:20;;;;;;;16.58;3.53;;;;;;;12.79;59.45;102575.63;7395648;19;20035;-54
2023/05/29 05:59:47;;;;;;;18.27;3.80;;;;;;;12.80;59.29;102575.53;7394716;19;20014;-55
2023/05/29 06:02:14;;;;;;;17.40;4.40;;;;;;;12.83;59.20;102577.19;7392959;19;20014;-54
2023/05/29 06:04:41;;;;;;;16.60;3.30;;;;;;;12.96;58.96;102574.69;7392869;19;20021;-55
2023/05/29 06:07:09;;;;;;;16.55;3.67;;;;;;;12.96;59.10;102578.22;7394885;19;20019;-49
2023/05/29 06:09:37;;;;;;;16.55;3.90;;;;;;;12.98;58.80;102578.16;7394161;19;20118;-52
2023/05/29 06:12:05;;;;;;;17.02;3.95;;;;;;;13.00;58.65;102574.44;7393329;19;20415;-50
2023/05/29 06:14:32;;;;;;;15.55;3.80;;;;;;;13.10;58.56;102582.78;7391972;19;20043;-52
2023/05/29 06:17:00;;;;;;;16.55;3.80;;;;;;;13.10;58.73;102580.13;7392945;19;20018;-49
2023/05/29 06:19:27;;;;;;;14.70;3.30;;;;;;;13.16;58.64;102588.66;7391733;19;20383;-53
2023/05/29 06:21:54;;;;;;;17.83;3.58;;;;;;;13.14;58.54;102590.50;7393519;19;20010;-50
2023/05/29 06:24:22;;;;;;;13.60;3.63;;;;;;;13.17;59.06;102593.00;7393790;19;20019;-52
2023/05/29 06:26:50;;;;;;;18.15;3.75;;;;;;;13.20;58.66;102596.44;7393382;19;20010;-52
2023/05/29 06:29:17;;;;;;;16.42;3.47;;;;;;;13.22;58.63;102603.38;7393860;19;20025;-53
2023/05/29 06:31:44;;;;;;;19.75;4.05;;;;;;;13.14;59.18;102595.84;7392718;19;20025;-52
2023/05/29 06:34:11;;;;;;;19.83;4.07;;;;;;;13.32;58.87;102594.00;7393278;19;20014;-51
2023/05/29 06:36:40;;;;;;;17.73;4.00;;;;;;;13.35;58.88;102600.94;7393674;19;20035;-55
2023/05/29 06:39:07;;;;;;;15.10;3.50;;;;;;;13.31;58.42;102592.25;7392689;19;20017;-52
2023/05/29 06:41:35;;;;;;;14.27;3.38;;;;;;;13.29;58.33;102594.16;7392207;19;20484;-55
2023/05/29 06:44:02;;;;;;;17.17;3.58;;;;;;;13.35;58.41;102588.47;7393443;19;20039;-55
2023/05/29 06:46:29;;;;;;;17.55;3.92;;;;;;;13.35;58.05;102595.63;7393208;19;20039;-48
2023/05/29 06:48:56;;;;;;;13.85;3.53;;;;;;;13.25;57.85;102589.97;7392491;19;20026;-48
2023/05/29 06:51:23;;;;;;;15.60;3.50;;;;;;;13.29;57.77;102590.66;7390585;19;20441;-51
2023/05/29 06:53:51;;;;;;;15.18;3.47;;;;;;;13.38;57.60;102585.66;7392737;19;20392;-48
2023/05/29 06:56:18;;;;;;;17.27;4.18;;;;;;;13.45;57.29;102601.28;7391280;19;20410;-55
2023/05/29 06:58:45;;;;;;;18.10;4.10;;;;;;;13.50;57.60;102604.53;7392534;19;20015;-56
2023/05/29 07:01:12;;;;;;;15.77;3.50;;;;;;;13.53;57.17;102599.91;7390583;19;20018;-51
2023/05/29 07:03:40;;;;;;;14.73;4.00;;;;;;;13.52;57.49;102605.34;7392605;19;20543;-49
2023/05/29 07:06:07;;;;;;;15.45;3.80;;;;;;;13.58;56.90;102591.66;7391099;19;20033;-52
2023/05/29 07:08:34;;;;;;;17.67;4.25;;;;;;;13.62;56.52;102596.75;7392050;19;20010;-50
2023/05/29 07:11:02;;;;;;;14.77;3.85;;;;;;;13.64;56.44;102594.84;7392288;19;20018;-50
2023/05/29 07:13:29;;;;;;;16.65;3.85;;;;;;;13.72;56.12;102591.72;7392981;19;20046;-51
2023/05/29 07:15:56;;;;;;;18.52;3.78;;;;;;;13.80;56.72;102599.28;7390807;19;20022;-56
2023/05/29 07:18:23;;;;;;;15.50;3.65;;;;;;;13.85;56.21;102602.53;7391719;19;20315;-57
2023/05/29 07:20:50;;;;;;;18.10;3.40;;;;;;;13.84;56.16;102612.31;7390725;19;20181;-55
2023/05/29 07:23:18;;;;;;;15.43;3.72;;;;;;;13.92;56.26;102603.03;7392838;19;20019;-55
2023/05/29 07:25:46;;;;;;;13.93;3.50;;;;;;;14.02;55.93;102601.56;7391641;19;20021;-53
2023/05/29 07:28:13;;;;;;;17.25;3.70;;;;;;;14.03;55.68;102608.59;7392589;19;20493;-50
2023/05/29 07:30:48;;;;;;;16.15;3.80;;;;;;;14.09;55.40;102609.09;7391473;19;20011;-53
2023/05/29 07:33:15;;;;;;;18.17;3.75;;;;;;;14.06;55.26;102605.75;7391366;19;20025;-52
2023/05/29 07:35:42;;;;;;;14.77;3.85;;;;;;;14.11;55.38;102603.66;7389951;19;20026;-51
2023/05/29 07:38:09;;;;;;;17.33;3.60;;;;;;;14.22;55.01;102609.22;7392500;19;20019;-51
2023/05/29 07:40:36;;;;;;;15.13;4.35;;;;;;;14.35;54.71;102607.56;7390996;19;20047;-53
2023/05/29 07:43:07;;;;;;;14.48;3.47;;;;;;;14.35;54.76;102607.56;7392621;19;20029;-51
2023/05/29 07:45:34;;;;;;;17.67;4.18;;;;;;;14.36;54.66;102609.28;7391314;19;20043;-53
2023/05/29 07:48:01;;;;;;;15.40;3.47;;;;;;;14.40;54.59;102607.28;7391209;19;20019;-53
2023/05/29 07:50:28;;;;;;;16.02;3.88;;;;;;;14.54;53.91;102609.16;7390436;19;20116;-52
2023/05/29 07:52:56;;;;;;;16.83;4.18;;;;;;;14.52;53.54;102598.56;7391588;19;20018;-50
2023/05/29 07:55:23;;;;;;;14.57;3.53;;;;;;;14.59;53.31;102604.38;7390189;19;20522;-53
2023/05/29 07:57:50;;;;;;;14.25;3.83;;;;;;;14.61;53.28;102599.81;7391255;19;20085;-54
2023/05/29 08:00:17;;;;;;;18.67;4.28;;;;;;;14.70;53.27;102593.06;7390559;19;20483;-53
2023/05/29 08:02:45;;;;;;;16.30;3.55;;;;;;;14.67;52.85;102599.44;7389504;19;20082;-53
2023/05/29 08:05:13;;;;;;;15.90;3.90;;;;;;;14.72;53.14;102597.34;7389173;19;20014;-52
2023/05/29 08:07:41;;;;;;;14.60;4.00;;;;;;;14.74;53.11;102595.44;7390368;19;20019;-53
2023/05/29 08:10:08;;;;;;;13.65;3.45;;;;;;;14.85;53.00;102606.31;7389999;19;20022;-52
2023/05/29 08:12:35;;;;;;;15.27;4.10;;;;;;;14.93;52.55;102605.84;7391200;19;20018;-57
2023/05/29 08:15:03;;;;;;;17.55;3.92;;;;;;;14.92;52.64;102609.47;7389273;19;20022;-57
2023/05/29 08:17:30;;;;;;;15.73;3.85;;;;;;;15.00;52.48;102612.50;7391086;19;20014;-57
2023/05/29 08:19:57;;;;;;;15.77;3.78;;;;;;;14.94;52.32;102610.22;7389688;19;20014;-54
2023/05/29 08:22:33;;;;;;;18.08;4.43;;;;;;;14.87;52.50;102612.41;7389631;19;20122;-54
2023/05/29 08:25:01;;;;;;;15.65;4.07;;;;;;;14.91;52.36;102615.72;7389725;19;20496;-54
2023/05/29 08:27:28;;;;;;;19.75;4.57;;;;;;;14.98;52.29;102613.53;7390361;19;20015;-54
2023/05/29 08:29:56;;;;;;;20.15;4.28;;;;;;;14.99;52.19;102610.78;7388305;19;20010;-53
2023/05/29 08:32:23;;;;;;;19.00;3.75;;;;;;;15.08;52.01;102617.38;7389430;19;20027;-53
2023/05/29 08:34:50;;;;;;;15.32;4.15;;;;;;;15.08;51.68;102620.88;7389083;19;20019;-52
2023/05/29 08:37:18;;;;;;;15.88;3.95;;;;;;;15.10;51.03;102615.44;7390772;19;20011;-55
2023/05/29 08:39:45;;;;;;;17.17;4.22;;;;;;;15.14;50.65;102608.94;7388951;19;20511;-54
2023/05/29 08:42:17;;;;;;;18.80;4.75;;;;;;;15.21;50.41;102615.63;7388290;19;20014;-50
2023/05/29 08:44:49;;;;;;;15.77;4.28;;;;;;;15.24;50.40;102612.75;7389723;19;20102;-50
2023/05/29 08:47:20;;;;;;;16.38;4.15;;;;;;;15.25;50.08;102616.28;7390329;19;20021;-49
2023/05/29 08:49:54;;;;;;;16.75;4.05;;;;;;;15.25;50.20;102616.28;7387280;19;20023;-52
2023/05/29 08:52:25;;;;;;;15.60;4.13;;;;;;;15.25;50.60;102619.81;7388154;19;20038;-48
2023/05/29 08:54:55;;;;;;;23.63;4.30;;;;;;;15.39;50.64;102620.75;7388393;19;20511;-51
2023/05/29 08:57:24;;;;;;;17.42;4.00;;;;;;;15.39;50.65;102618.94;7389717;19;20011;-50
2023/05/29 08:59:52;;;;;;;15.70;4.00;;;;;;;15.30;50.22;102615.06;7388912;19;20017;-52
2023/05/29 09:02:19;;;;;;;15.48;3.95;;;;;;;15.36;50.16;102617.31;7388306;19;20032;-53
2023/05/29 09:04:52;;;;;;;16.25;3.80;;;;;;;15.40;49.65;102619.78;7389188;19;20022;-49
2023/05/29 09:07:20;;;;;;;15.60;4.15;;;;;;;15.39;49.88;102610.94;7389799;19;20090;-47
2023/05/29 09:09:48;;;;;;;14.73;3.67;;;;;;;15.44;49.88;102613.28;7388191;19;20022;-49
2023/05/29 09:12:16;;;;;;;14.40;3.95;;;;;;;15.46;49.91;102611.41;7387422;19;20021;-52
2023/05/29 09:14:45;;;;;;;15.20;3.75;;;;;;;15.51;50.58;102614.63;7388781;19;20039;-49
2023/05/29 09:17:13;;;;;;;17.08;4.47;;;;;;;15.48;50.64;102613.00;7391608;19;20027;-50
2023/05/29 09:19:41;;;;;;;19.17;4.45;;;;;;;15.48;50.83;102620.16;7395751;19;20518;-49
2023/05/29 09:22:14;;;;;;;16.15;4.13;;;;;;;15.49;50.37;102620.06;7392786;19;20019;-49
2023/05/29 09:24:49;;;;;;;16.77;4.28;;;;;;;15.51;50.52;102615.47;7395633;19;20023;-55
2023/05/29 09:27:17;;;;;;;16.17;4.20;;;;;;;15.62;50.36;102609.44;7398686;19;20025;-54
2023/05/29 09:29:46;;;;;;;15.30;4.03;;;;;;;15.63;50.17;102613.81;7394877;19;20478;-53
2023/05/29 09:32:17;;;;;;;15.77;4.03;;;;;;;15.63;49.89;102615.63;7387701;19;20459;-54
2023/05/29 09:34:45;;;;;;;15.02;4.10;;;;;;;15.62;49.58;102617.44;7396963;19;20038;-54
2023/05/29 09:37:13;;;;;;;16.38;4.35;;;;;;;15.69;49.42;102621.47;7396154;19;20118;-51
2023/05/29 09:39:53;;;;;;;13.07;3.55;;;;;;;15.71;49.06;102616.00;7393026;19;20033;-53
2023/05/29 09:42:20;;;;;;;13.63;3.60;;;;;;;15.69;49.30;102610.78;7393353;19;20517;-53
2023/05/29 09:44:53;;;;;;;16.58;4.38;;;;;;;15.77;48.84;102603.13;7397184;19;20018;-53
2023/05/29 09:47:21;;;;;;;19.15;4.22;;;;;;;15.90;48.59;102604.97;7393853;19;20047;-53
2023/05/29 09:49:49;;;;;;;14.55;3.83;;;;;;;15.97;48.44;102611.63;7394332;19;20082;-49
2023/05/29 09:52:21;;;;;;;16.88;4.05;;;;;;;16.02;47.64;102615.69;7392739;19;20046;-53
2023/05/29 09:54:50;;;;;;;15.82;4.18;;;;;;;16.02;47.81;102610.34;7393631;19;20039;-52
2023/05/29 09:57:18;;;;;;;15.98;3.90;;;;;;;16.03;48.07;102612.09;7397877;19;20431;-53
2023/05/29 09:59:50;;;;;;;14.60;3.95;;;;;;;16.11;47.94;102611.56;7394350;19;20026;-53
2023/05/29 10:02:18;;;;;;;17.20;3.72;;;;;;;16.13;48.33;102609.63;7392349;19;20019;-54
2023/05/29 10:04:45;;;;;;;16.98;3.92;;;;;;;16.19;48.44;102613.72;7394366;19;20014;-54
2023/05/29 10:07:25;;;;;;;13.95;3.78;;;;;;;16.34;48.07;102612.69;7392567;19;20017;-55
2023/05/29 10:09:59;;;;;;;15.63;4.00;;;;;;;16.30;48.08;102609.34;7394072;19;20036;-53
2023/05/29 10:12:29;;;;;;;18.58;4.13;;;;;;;16.35;48.09;102608.19;7391927;19;20030;-52
2023/05/29 10:15:00;;;;;;;18.42;4.05;;;;;;;16.30;48.31;102601.34;7393786;19;20341;-54
2023/05/29 10:17:39;;;;;;;18.65;4.10;;;;;;;16.30;48.39;102597.81;7394050;19;20043;-54
2023/05/29 10:20:12;;;;;;;16.77;4.30;;;;;;;16.32;48.76;102593.19;7393446;19;20015;-54
2023/05/29 10:22:43;;;;;;;16.63;3.72;;;;;;;16.39;48.89;102604.34;7394047;19;20082;-53
2023/05/29 10:25:11;;;;;;;14.43;3.80;;;;;;;16.31;48.79;102586.13;7393849;19;20073;-53
2023/05/29 10:27:39;;;;;;;14.25;3.83;;;;;;;16.23;48.48;102589.34;7393915;19;20509;-54
2023/05/29 10:30:15;;;;;;;14.70;3.58;;;;;;;16.27;48.15;102585.50;7391370;19;20087;-54
2023/05/29 10:32:51;;;;;;;14.70;3.70;;;;;;;16.30;47.77;102593.31;7393050;19;20538;-55
2023/05/29 10:35:27;;;;;;;16.42;3.63;;;;;;;16.35;48.24;102584.97;7393059;19;20125;-54
2023/05/29 10:37:57;;;;;;;15.65;4.18;;;;;;;16.38;49.00;102587.44;7391711;19;20022;-54
2023/05/29 10:40:26;;;;;;;17.95;4.10;;;;;;;16.33;48.96;102587.75;7392198;19;20095;-54
2023/05/29 10:42:58;;;;;;;17.73;4.22;;;;;;;16.41;49.24;102581.88;7393509;19;20039;-53
2023/05/29 10:45:28;;;;;;;14.23;3.72;;;;;;;16.42;49.04;102594.28;7393062;19;20483;-54
2023/05/29 10:47:56;;;;;;;15.30;3.70;;;;;;;16.50;48.28;102585.72;7392993;19;20014;-54
2023/05/29 10:50:35;;;;;;;17.05;4.05;;;;;;;16.56;48.41;102593.34;7392191;19;20043;-52
2023/05/29 10:53:02;;;;;;;17.55;4.00;;;;;;;16.54;48.47;102581.88;7393304;19;20501;-55
2023/05/29 10:55:37;;;;;;;16.38;4.45;;;;;;;16.66;48.17;102581.00;7391153;19;20021;-54
2023/05/29 10:58:12;;;;;;;19.30;4.00;;;;;;;16.74;48.03;102589.38;7393225;19;20018;-53
2023/05/29 11:00:42;;;;;;;15.73;4.20;;;;;;;16.68;47.75;102573.75;7390842;19;20035;-54
2023/05/29 11:03:10;;;;;;;16.10;4.07;;;;;;;16.61;47.87;102579.63;7392588;19;20011;-52
2023/05/29 11:05:58;;;;;;;17.85;4.28;;;;;;;16.68;48.31;102576.41;7391586;19;20443;-54
2023/05/29 11:08:55;;;;;;;16.85;4.18;;;;;;;16.72;48.28;102577.06;7391473;19;20026;-53
2023/05/29 11:11:36;;;;;;;16.50;4.30;;;;;;;16.70;48.66;102578.97;7388773;19;20487;-53
2023/05/29 11:14:05;;;;;;;17.20;4.45;;;;;;;16.65;48.58;102581.97;7392357;19;20046;-52
2023/05/29 11:16:32;;;;;;;20.02;4.07;;;;;;;16.66;48.39;102574.81;7390293;19;20019;-53
2023/05/29 11:19:04;;;;;;;16.13;4.57;;;;;;;16.69;48.20;102569.25;7391191;19;20524;-54
2023/05/29 11:21:49;;;;;;;14.85;4.07;;;;;;;16.77;48.58;102577.63;7391091;19;20082;-53
2023/05/29 11:24:26;;;;;;;16.33;4.30;;;;;;;16.81;48.31;102577.28;7391644;19;20043;-54